Time;durP1;ratioP1;P1;durP2;ratioP2;P2;SDS_P1;SDS_P2;PMS_P1;PMS_P2;Temp;Humidity;BMP_temperature;BMP_pressure;BME280_temperature;BME280_humidity;BME280_pressure;Samples;Min_cycle;Max_cycle;Signal;HPM_P1;HPM_P2
2021/08/26 00:09:46;;;;;;;3.70;3.17;;;;;;;;;;10308790;28;20521;-59
2021/08/26 00:14:45;;;;;;;3.13;2.83;;;;;;;;;;10292979;28;20060;-59
2021/08/26 00:19:43;;;;;;;2.47;2.28;;;;;;;;;;10280952;28;20071;-59
2021/08/26 00:24:42;;;;;;;4.03;2.60;;;;;;;;;;10286586;28;20064;-59
2021/08/26 00:29:41;;;;;;;3.47;2.72;;;;;;;;;;10276577;28;20048;-59
2021/08/26 00:34:40;;;;;;;4.60;2.58;;;;;;;;;;10276409;28;20053;-58
2021/08/26 00:39:38;;;;;;;2.83;2.58;;;;;;;;;;10276523;28;20053;-59
2021/08/26 00:44:36;;;;;;;4.93;2.97;;;;;;;;;;10276395;28;20075;-59
2021/08/26 00:49:36;;;;;;;5.78;3.03;;;;;;;;;;10275661;28;20053;-59
2021/08/26 00:54:35;;;;;;;3.63;2.80;;;;;;;;;;10278456;28;20080;-59
2021/08/26 00:59:33;;;;;;;4.18;2.92;;;;;;;;;;10284167;28;20505;-59
2021/08/26 01:04:34;;;;;;;5.40;3.20;;;;;;;;;;10284285;28;20100;-59
2021/08/26 01:09:42;;;;;;;3.53;2.40;;;;;;;;;;10284097;28;20049;-58
2021/08/26 01:14:40;;;;;;;4.55;3.08;;;;;;;;;;10283961;28;20525;-59
2021/08/26 01:19:39;;;;;;;3.17;2.90;;;;;;;;;;10283724;28;20045;-59
2021/08/26 01:24:39;;;;;;;4.63;3.20;;;;;;;;;;10281682;28;20056;-60
2021/08/26 01:29:39;;;;;;;6.55;2.80;;;;;;;;;;10283310;28;20048;-59
2021/08/26 01:34:37;;;;;;;5.53;3.05;;;;;;;;;;10283137;28;20045;-59
2021/08/26 01:39:44;;;;;;;4.22;3.38;;;;;;;;;;10282979;28;20048;-60
2021/08/26 01:44:44;;;;;;;3.65;3.30;;;;;;;;;;10282905;28;20072;-60
2021/08/26 01:49:43;;;;;;;4.60;3.60;;;;;;;;;;10279898;28;20514;-60
2021/08/26 01:54:41;;;;;;;3.72;3.08;;;;;;;;;;10279896;28;20430;-60
2021/08/26 01:59:39;;;;;;;3.63;3.17;;;;;;;;;;10279752;28;20068;-60
2021/08/26 02:04:39;;;;;;;3.45;3.15;;;;;;;;;;10278119;28;20068;-59
2021/08/26 02:09:37;;;;;;;5.80;3.47;;;;;;;;;;10279524;28;20410;-60
2021/08/26 02:14:36;;;;;;;4.38;3.83;;;;;;;;;;10279253;28;20409;-60
2021/08/26 02:19:34;;;;;;;3.63;3.33;;;;;;;;;;10278278;28;20048;-60
2021/08/26 02:24:35;;;;;;;4.13;3.00;;;;;;;;;;10279144;28;20080;-60
2021/08/26 02:29:33;;;;;;;6.82;4.18;;;;;;;;;;10278896;28;20072;-60
2021/08/26 02:34:32;;;;;;;6.68;3.80;;;;;;;;;;10277618;28;20049;-61
2021/08/26 02:39:30;;;;;;;3.50;3.20;;;;;;;;;;10278565;28;20079;-58
2021/08/26 02:44:30;;;;;;;4.00;3.25;;;;;;;;;;10278251;28;20076;-58
2021/08/26 02:49:28;;;;;;;3.78;3.47;;;;;;;;;;10239288;28;1128406;-58
2021/08/26 02:54:27;;;;;;;4.65;3.35;;;;;;;;;;10280045;28;20041;-61
2021/08/26 02:59:25;;;;;;;3.70;3.40;;;;;;;;;;10279783;28;20410;-61
2021/08/26 03:04:25;;;;;;;4.53;4.13;;;;;;;;;;10298196;28;20069;-59
2021/08/26 03:09:23;;;;;;;4.45;3.90;;;;;;;;;;10302334;28;20680;-59
2021/08/26 03:14:21;;;;;;;4.88;3.95;;;;;;;;;;10299683;28;20195;-58
2021/08/26 03:19:19;;;;;;;3.67;3.05;;;;;;;;;;10298144;28;20072;-59
2021/08/26 03:24:19;;;;;;;3.95;3.65;;;;;;;;;;10291143;28;20075;-58
2021/08/26 03:29:17;;;;;;;6.10;3.28;;;;;;;;;;10290759;28;20071;-58
2021/08/26 03:34:16;;;;;;;4.43;3.47;;;;;;;;;;10318517;28;20072;-58
2021/08/26 03:39:14;;;;;;;3.40;3.10;;;;;;;;;;10292118;28;20447;-58
2021/08/26 03:44:14;;;;;;;4.32;3.47;;;;;;;;;;10273808;28;20084;-59
2021/08/26 03:49:12;;;;;;;4.07;3.03;;;;;;;;;;10273129;28;20096;-59
2021/08/26 03:54:10;;;;;;;4.22;3.83;;;;;;;;;;10273583;28;20076;-58
2021/08/26 03:59:08;;;;;;;5.05;3.80;;;;;;;;;;10276312;28;20072;-57
2021/08/26 04:04:08;;;;;;;6.60;3.88;;;;;;;;;;10277133;28;20079;-59
2021/08/26 04:09:07;;;;;;;3.97;3.33;;;;;;;;;;10276987;28;20052;-57
2021/08/26 04:14:05;;;;;;;8.02;4.63;;;;;;;;;;10275171;28;20046;-58
2021/08/26 04:19:03;;;;;;;4.50;4.10;;;;;;;;;;10281749;28;20071;-59
2021/08/26 04:24:03;;;;;;;8.07;7.32;;;;;;;;;;10276743;28;20454;-60
2021/08/26 04:29:01;;;;;;;6.32;5.07;;;;;;;;;;10276375;28;20048;-59
2021/08/26 04:34:00;;;;;;;18.33;16.45;;;;;;;;;;10276453;28;20371;-59
2021/08/26 04:38:58;;;;;;;6.85;6.13;;;;;;;;;;10276437;28;20131;-59
2021/08/26 04:43:58;;;;;;;5.75;5.18;;;;;;;;;;10276076;28;20076;-58
2021/08/26 04:48:56;;;;;;;8.45;6.18;;;;;;;;;;10275327;28;20084;-59
2021/08/26 04:53:54;;;;;;;8.27;6.03;;;;;;;;;;10273217;28;20037;-59
2021/08/26 04:58:53;;;;;;;8.60;6.85;;;;;;;;;;10272240;28;20072;-59
2021/08/26 05:03:52;;;;;;;14.32;12.93;;;;;;;;;;10272475;28;20083;-59
2021/08/26 05:08:51;;;;;;;6.15;5.45;;;;;;;;;;10274823;28;20049;-60
2021/08/26 05:13:49;;;;;;;6.75;6.15;;;;;;;;;;10275863;28;20037;-60
2021/08/26 05:18:47;;;;;;;7.47;6.78;;;;;;;;;;10275637;28;20036;-61
2021/08/26 05:23:47;;;;;;;8.27;6.65;;;;;;;;;;10275349;28;20080;-59
2021/08/26 05:28:46;;;;;;;7.18;6.47;;;;;;;;;;10275416;28;20037;-60
2021/08/26 05:33:44;;;;;;;7.82;6.72;;;;;;;;;;10275081;28;20077;-59
2021/08/26 05:38:42;;;;;;;9.85;7.03;;;;;;;;;;10275130;28;20041;-60
2021/08/26 05:43:42;;;;;;;7.75;6.93;;;;;;;;;;10281782;28;20044;-60
2021/08/26 05:48:40;;;;;;;11.00;7.30;;;;;;;;;;10282567;28;20048;-60
2021/08/26 05:53:39;;;;;;;7.78;6.97;;;;;;;;;;10281533;28;20041;-60
2021/08/26 05:58:37;;;;;;;7.85;7.05;;;;;;;;;;10282056;28;20080;-60
2021/08/26 06:03:37;;;;;;;7.80;7.10;;;;;;;;;;10281873;28;20531;-60
2021/08/26 06:08:35;;;;;;;7.75;6.68;;;;;;;;;;10281108;28;20044;-61
2021/08/26 06:13:34;;;;;;;7.07;6.40;;;;;;;;;;10281582;28;20489;-60
2021/08/26 06:18:32;;;;;;;11.48;7.38;;;;;;;;;;10281147;28;20041;-61
2021/08/26 06:23:32;;;;;;;7.82;6.50;;;;;;;;;;10280954;28;20077;-60
2021/08/26 06:28:30;;;;;;;13.18;7.22;;;;;;;;;;10280697;28;20095;-60
2021/08/26 06:33:29;;;;;;;9.60;6.90;;;;;;;;;;10280528;28;20037;-60
2021/08/26 06:38:27;;;;;;;10.27;6.68;;;;;;;;;;10280517;28;20041;-61
2021/08/26 06:43:27;;;;;;;7.43;6.65;;;;;;;;;;10280121;28;20087;-61
2021/08/26 06:48:25;;;;;;;6.82;6.07;;;;;;;;;;10279489;28;20445;-61
2021/08/26 06:53:23;;;;;;;8.52;6.00;;;;;;;;;;10278623;28;20049;-61
2021/08/26 06:58:22;;;;;;;7.60;5.97;;;;;;;;;;10279822;28;20064;-61
2021/08/26 07:03:23;;;;;;;7.10;5.90;;;;;;;;;;10279675;28;20077;-62
2021/08/26 07:08:21;;;;;;;7.32;6.13;;;;;;;;;;10279506;28;20076;-60
2021/08/26 07:13:20;;;;;;;12.75;5.63;;;;;;;;;;10279011;28;20048;-61
2021/08/26 07:18:19;;;;;;;8.75;5.70;;;;;;;;;;10278810;28;20486;-60
2021/08/26 07:23:18;;;;;;;7.65;6.03;;;;;;;;;;10278592;28;20072;-60
2021/08/26 07:28:17;;;;;;;8.25;6.03;;;;;;;;;;10278965;28;20052;-60
2021/08/26 07:33:15;;;;;;;11.85;5.38;;;;;;;;;;10277473;28;20044;-61
2021/08/26 07:38:13;;;;;;;6.20;5.60;;;;;;;;;;10278184;28;20041;-60
2021/08/26 07:43:14;;;;;;;7.05;4.90;;;;;;;;;;10277939;28;20056;-60
2021/08/26 07:48:12;;;;;;;8.80;4.75;;;;;;;;;;10276973;28;20095;-60
2021/08/26 07:53:10;;;;;;;8.43;5.72;;;;;;;;;;10277528;28;20081;-60
2021/08/26 07:58:09;;;;;;;9.52;5.50;;;;;;;;;;10277539;28;20044;-59
2021/08/26 08:03:08;;;;;;;5.63;5.13;;;;;;;;;;10276651;28;20044;-60
2021/08/26 08:08:07;;;;;;;9.05;5.47;;;;;;;;;;10277255;28;20037;-61
2021/08/26 08:13:05;;;;;;;5.97;5.32;;;;;;;;;;10276775;28;20521;-60
2021/08/26 08:18:03;;;;;;;6.90;5.78;;;;;;;;;;10276706;28;20052;-60
2021/08/26 08:23:03;;;;;;;7.00;6.13;;;;;;;;;;10276663;28;20052;-60
2021/08/26 08:28:02;;;;;;;7.40;5.85;;;;;;;;;;10276468;28;20465;-60
2021/08/26 08:33:00;;;;;;;9.38;6.60;;;;;;;;;;10276145;28;20044;-61
2021/08/26 08:37:58;;;;;;;7.07;6.47;;;;;;;;;;10276253;28;20041;-61
2021/08/26 08:42:58;;;;;;;7.88;6.38;;;;;;;;;;10276285;28;20040;-60
2021/08/26 08:47:57;;;;;;;6.05;5.35;;;;;;;;;;10275830;28;20088;-60
2021/08/26 08:52:56;;;;;;;8.15;5.78;;;;;;;;;;10275818;28;20049;-60
2021/08/26 08:57:54;;;;;;;4.97;4.45;;;;;;;;;;10275866;28;20508;-60
2021/08/26 09:02:54;;;;;;;5.57;5.07;;;;;;;;;;10275735;28;20116;-60
2021/08/26 09:08:08;;;;;;;10.23;8.30;;;;;;;;;;10275487;28;20083;-62
2021/08/26 09:13:08;;;;;;;;;;;;;;;;;;10278941;28;20060;-62
2021/08/26 09:18:17;;;;;;;8.40;5.45;;;;;;;;;;10282793;28;19920;-61
2021/08/26 09:23:15;;;;;;;9.50;5.85;;;;;;;;;;10283276;28;20041;-60
2021/08/26 09:28:35;;;;;;;5.47;4.40;;;;;;;;;;10283139;28;20518;-61
2021/08/26 09:33:45;;;;;;;5.32;4.82;;;;;;;;;;10278624;28;20060;-61
2021/08/26 09:38:44;;;;;;;5.15;4.72;;;;;;;;;;10282909;28;20485;-61
2021/08/26 09:43:42;;;;;;;5.30;4.22;;;;;;;;;;10282639;28;20041;-61
2021/08/26 09:48:42;;;;;;;5.35;3.88;;;;;;;;;;10282517;28;20064;-61
2021/08/26 09:53:40;;;;;;;5.38;4.18;;;;;;;;;;10282173;28;20100;-62
2021/08/26 09:58:39;;;;;;;5.30;3.75;;;;;;;;;;10282068;28;20075;-59
2021/08/26 10:03:37;;;;;;;4.68;3.80;;;;;;;;;;10281876;28;20417;-60
2021/08/26 10:08:37;;;;;;;4.35;3.90;;;;;;;;;;10281639;28;20076;-60
2021/08/26 10:13:36;;;;;;;6.88;4.95;;;;;;;;;;10281585;28;20064;-59
2021/08/26 10:18:35;;;;;;;5.20;4.80;;;;;;;;;;10281170;28;20442;-59
2021/08/26 10:23:34;;;;;;;5.00;4.50;;;;;;;;;;10281029;28;20040;-60
2021/08/26 10:28:35;;;;;;;4.72;4.22;;;;;;;;;;10280501;28;20077;-59
2021/08/26 10:33:33;;;;;;;5.13;4.72;;;;;;;;;;10280816;28;20045;-60
2021/08/26 10:38:32;;;;;;;5.22;4.72;;;;;;;;;;10280612;28;20080;-60
2021/08/26 10:43:36;;;;;;;8.55;5.20;;;;;;;;;;10280287;28;20045;-60
2021/08/26 10:48:35;;;;;;;8.02;5.38;;;;;;;;;;10280435;28;20092;-60
2021/08/26 10:53:34;;;;;;;6.93;5.25;;;;;;;;;;10280087;28;20049;-59
2021/08/26 10:58:34;;;;;;;5.03;4.53;;;;;;;;;;10279677;28;20040;-60
2021/08/26 11:03:56;;;;;;;9.13;7.13;;;;;;;;;;10279655;28;20049;-60
2021/08/26 11:08:55;;;;;;;6.10;4.28;;;;;;;;;;10279467;28;20080;-60
2021/08/26 11:13:54;;;;;;;5.65;5.15;;;;;;;;;;10278274;28;20052;-60
2021/08/26 11:18:53;;;;;;;7.28;6.03;;;;;;;;;;10279110;28;20052;-60
2021/08/26 11:23:53;;;;;;;9.85;5.10;;;;;;;;;;10278991;28;20084;-60
2021/08/26 11:28:51;;;;;;;7.57;5.40;;;;;;;;;;10277631;28;20103;-60
2021/08/26 11:33:50;;;;;;;7.88;6.57;;;;;;;;;;10278616;28;20056;-60
2021/08/26 11:38:51;;;;;;;7.28;6.47;;;;;;;;;;10277716;28;20091;-61
2021/08/26 11:43:51;;;;;;;5.57;5.07;;;;;;;;;;10277907;28;20057;-61
2021/08/26 11:48:50;;;;;;;5.50;5.00;;;;;;;;;;10277709;28;20472;-61
2021/08/26 11:53:48;;;;;;;6.63;4.93;;;;;;;;;;10277907;28;20888;-60
2021/08/26 11:58:47;;;;;;;5.32;4.57;;;;;;;;;;10277464;28;20226;-60
2021/08/26 12:03:53;;;;;;;5.15;4.65;;;;;;;;;;10277296;28;20048;-60
2021/08/26 12:08:51;;;;;;;6.10;4.85;;;;;;;;;;10277205;28;20076;-62
2021/08/26 12:13:49;;;;;;;10.43;7.15;;;;;;;;;;10276758;28;20087;-61
2021/08/26 12:18:48;;;;;;;11.25;6.15;;;;;;;;;;10276708;28;20048;-61
2021/08/26 12:23:49;;;;;;;7.60;5.57;;;;;;;;;;10276695;28;20073;-61
2021/08/26 12:28:49;;;;;;;6.15;4.70;;;;;;;;;;10276352;28;20088;-61
2021/08/26 12:33:58;;;;;;;4.93;4.53;;;;;;;;;;10276521;28;20045;-61
2021/08/26 12:38:57;;;;;;;4.82;4.32;;;;;;;;;;10276295;28;20041;-61
2021/08/26 12:43:58;;;;;;;6.07;3.92;;;;;;;;;;10276106;28;20039;-62
2021/08/26 12:49:04;;;;;;;8.27;4.53;;;;;;;;;;10276713;28;20103;-61
2021/08/26 12:54:15;;;;;;;4.50;4.07;;;;;;;;;;10283631;28;20430;-61
2021/08/26 12:59:13;;;;;;;4.55;4.10;;;;;;;;;;10284428;28;20056;-61
2021/08/26 13:04:16;;;;;;;5.25;4.38;;;;;;;;;;10284494;28;20107;-61
2021/08/26 13:09:27;;;;;;;10.67;4.13;;;;;;;;;;10284195;28;20215;-61
2021/08/26 13:14:27;;;;;;;4.78;4.38;;;;;;;;;;10282913;28;20080;-62
2021/08/26 13:19:25;;;;;;;5.13;3.38;;;;;;;;;;10283636;28;20040;-62
2021/08/26 13:24:24;;;;;;;3.72;3.42;;;;;;;;;;10283687;28;20041;-64
2021/08/26 13:29:24;;;;;;;5.13;3.58;;;;;;;;;;10282406;28;20099;-61
2021/08/26 13:34:22;;;;;;;4.88;4.15;;;;;;;;;;10283268;28;20057;-62
2021/08/26 13:39:20;;;;;;;3.53;3.22;;;;;;;;;;10281373;28;20426;-61
2021/08/26 13:44:19;;;;;;;7.10;4.13;;;;;;;;;;10282800;28;20478;-61
2021/08/26 13:49:18;;;;;;;3.55;3.25;;;;;;;;;;10282026;28;20077;-60
2021/08/26 13:54:17;;;;;;;6.38;3.30;;;;;;;;;;10280860;28;20045;-61
2021/08/26 13:59:15;;;;;;;3.17;2.67;;;;;;;;;;10282251;28;20044;-61
2021/08/26 14:04:14;;;;;;;3.38;3.08;;;;;;;;;;10281502;28;20049;-61
2021/08/26 14:09:13;;;;;;;4.35;3.50;;;;;;;;;;10280536;28;20056;-61
2021/08/26 14:14:13;;;;;;;5.53;4.50;;;;;;;;;;10280619;28;20053;-61
2021/08/26 14:19:11;;;;;;;6.38;4.10;;;;;;;;;;10281415;28;20041;-61
2021/08/26 14:24:09;;;;;;;10.57;3.58;;;;;;;;;;10281282;28;20489;-62
2021/08/26 14:29:09;;;;;;;8.25;3.67;;;;;;;;;;10280980;28;20456;-61
2021/08/26 14:34:07;;;;;;;5.65;4.38;;;;;;;;;;10280971;28;20403;-61
2021/08/26 14:39:06;;;;;;;5.25;3.42;;;;;;;;;;10279929;28;20041;-62
2021/08/26 14:44:04;;;;;;;5.35;4.00;;;;;;;;;;10279464;28;20049;-61
2021/08/26 14:49:04;;;;;;;4.85;4.22;;;;;;;;;;10279583;28;20103;-61
2021/08/26 14:54:02;;;;;;;6.47;4.25;;;;;;;;;;10279265;28;20486;-62
2021/08/26 14:59:00;;;;;;;6.25;3.60;;;;;;;;;;10289052;28;20064;-60
2021/08/26 15:03:59;;;;;;;6.88;6.18;;;;;;;;;;10288476;28;20071;-59
2021/08/26 15:08:58;;;;;;;6.63;6.03;;;;;;;;;;10301903;28;20072;-62
2021/08/26 15:13:57;;;;;;;5.07;4.55;;;;;;;;;;10293812;28;20064;-60
2021/08/26 15:18:55;;;;;;;4.20;3.63;;;;;;;;;;10293264;28;20040;-62
2021/08/26 15:23:53;;;;;;;5.60;5.10;;;;;;;;;;10303232;28;20453;-61
2021/08/26 15:28:56;;;;;;;4.93;4.50;;;;;;;;;;10316016;28;20087;-61
2021/08/26 15:33:55;;;;;;;8.57;5.10;;;;;;;;;;10318788;28;20048;-61
2021/08/26 15:38:54;;;;;;;5.65;5.05;;;;;;;;;;10318885;28;20049;-61
2021/08/26 15:43:53;;;;;;;10.65;5.75;;;;;;;;;;10317742;28;20075;-61
2021/08/26 15:48:56;;;;;;;11.85;7.75;;;;;;;;;;10317743;28;20096;-61
2021/08/26 15:53:59;;;;;;;6.07;5.47;;;;;;;;;;10318593;28;20209;-61
2021/08/26 15:58:59;;;;;;;9.93;7.93;;;;;;;;;;10318190;28;20497;-61
2021/08/26 16:03:59;;;;;;;6.05;5.07;;;;;;;;;;10316457;28;20048;-61
2021/08/26 16:09:00;;;;;;;7.97;6.85;;;;;;;;;;10317993;28;20539;-61
2021/08/26 16:13:58;;;;;;;13.70;9.90;;;;;;;;;;10317787;28;20048;-61
2021/08/26 16:18:56;;;;;;;11.38;7.82;;;;;;;;;;10316927;28;20045;-61
2021/08/26 16:23:56;;;;;;;8.65;7.22;;;;;;;;;;10317305;28;20045;-61
2021/08/26 16:28:54;;;;;;;9.90;6.65;;;;;;;;;;10317641;28;20072;-61
2021/08/26 16:33:52;;;;;;;25.15;16.67;;;;;;;;;;10316396;28;20087;-61
2021/08/26 16:38:51;;;;;;;7.28;6.43;;;;;;;;;;10317166;28;20413;-61
2021/08/26 16:43:51;;;;;;;8.35;6.88;;;;;;;;;;10316881;28;20071;-61
2021/08/26 16:48:49;;;;;;;10.52;8.70;;;;;;;;;;10316100;28;20092;-61
2021/08/26 16:53:47;;;;;;;12.50;11.07;;;;;;;;;;10316930;28;20079;-60
2021/08/26 16:58:46;;;;;;;11.60;9.32;;;;;;;;;;10316766;28;20045;-61
2021/08/26 17:03:45;;;;;;;10.68;8.88;;;;;;;;;;10316605;28;20402;-60
2021/08/26 17:08:44;;;;;;;12.60;9.98;;;;;;;;;;10316424;28;20048;-61
2021/08/26 17:13:43;;;;;;;8.60;7.50;;;;;;;;;;10316306;28;20048;-61
2021/08/26 17:18:41;;;;;;;8.65;6.90;;;;;;;;;;10316369;28;20049;-61
2021/08/26 17:23:40;;;;;;;6.97;6.28;;;;;;;;;;10314688;28;20409;-61
2021/08/26 17:28:39;;;;;;;12.70;7.07;;;;;;;;;;10316023;28;20076;-61
2021/08/26 17:33:37;;;;;;;7.88;6.80;;;;;;;;;;10315885;28;20516;-61
2021/08/26 17:38:35;;;;;;;7.95;6.10;;;;;;;;;;10321115;28;20041;-60
2021/08/26 17:43:35;;;;;;;7.68;5.20;;;;;;;;;;10323248;28;20045;-61
2021/08/26 17:48:33;;;;;;;5.28;4.78;;;;;;;;;;10322605;28;20084;-61
2021/08/26 17:53:32;;;;;;;6.82;5.32;;;;;;;;;;10322947;28;20052;-61
2021/08/26 17:58:34;;;;;;;6.43;5.88;;;;;;;;;;10321985;28;20049;-61
2021/08/26 18:03:34;;;;;;;5.63;5.07;;;;;;;;;;10322469;28;20049;-60
2021/08/26 18:08:32;;;;;;;6.70;5.68;;;;;;;;;;10322413;28;20091;-60
2021/08/26 18:13:31;;;;;;;6.75;5.95;;;;;;;;;;10322208;28;20049;-60
2021/08/26 18:18:29;;;;;;;6.50;5.90;;;;;;;;;;10322236;28;20041;-60
2021/08/26 18:23:29;;;;;;;7.25;6.38;;;;;;;;;;10322111;28;20045;-60
2021/08/26 18:28:27;;;;;;;6.75;6.05;;;;;;;;;;10321947;28;20084;-60
2021/08/26 18:33:25;;;;;;;7.07;5.90;;;;;;;;;;10321727;28;20076;-60
2021/08/26 18:38:24;;;;;;;7.95;7.15;;;;;;;;;;10321320;28;20623;-60
2021/08/26 18:43:23;;;;;;;7.63;6.88;;;;;;;;;;10320939;28;20071;-60
2021/08/26 18:48:22;;;;;;;7.50;6.80;;;;;;;;;;10319961;28;20096;-60
2021/08/26 18:53:20;;;;;;;8.75;7.60;;;;;;;;;;10320608;28;20572;-60
2021/08/26 18:58:18;;;;;;;8.02;7.28;;;;;;;;;;10318403;28;20073;-59
2021/08/26 19:03:18;;;;;;;7.13;6.43;;;;;;;;;;10287634;28;20075;-58
2021/08/26 19:08:18;;;;;;;7.57;6.75;;;;;;;;;;10280085;28;20486;-59
2021/08/26 19:13:18;;;;;;;6.40;5.80;;;;;;;;;;10284218;28;20513;-59
2021/08/26 19:18:18;;;;;;;7.05;6.35;;;;;;;;;;10288088;28;20068;-60
2021/08/26 19:23:17;;;;;;;7.03;6.32;;;;;;;;;;10276166;28;20079;-60
2021/08/26 19:28:16;;;;;;;9.95;6.82;;;;;;;;;;10278539;28;20075;-60
2021/08/26 19:33:14;;;;;;;7.75;6.82;;;;;;;;;;10278210;28;20147;-60
2021/08/26 19:38:14;;;;;;;8.07;6.43;;;;;;;;;;10276954;28;20083;-60
2021/08/26 19:43:12;;;;;;;7.78;6.60;;;;;;;;;;10277691;28;20092;-60
2021/08/26 19:48:10;;;;;;;7.57;6.80;;;;;;;;;;10277734;28;20088;-61
2021/08/26 19:53:09;;;;;;;10.00;7.00;;;;;;;;;;10275977;28;20056;-60
2021/08/26 19:58:08;;;;;;;9.18;6.78;;;;;;;;;;10285950;28;20494;-60
2021/08/26 20:03:07;;;;;;;10.02;7.07;;;;;;;;;;10300872;28;20067;-61
2021/08/26 20:08:05;;;;;;;7.15;6.45;;;;;;;;;;10291576;28;20069;-59
2021/08/26 20:13:04;;;;;;;7.68;6.95;;;;;;;;;;10285554;28;20048;-61
2021/08/26 20:18:03;;;;;;;7.47;6.45;;;;;;;;;;10287672;28;20076;-60
2021/08/26 20:23:02;;;;;;;7.65;6.90;;;;;;;;;;10282722;28;20068;-61
2021/08/26 20:28:00;;;;;;;7.85;7.05;;;;;;;;;;10289498;28;20069;-60
2021/08/26 20:32:59;;;;;;;7.88;7.07;;;;;;;;;;10276196;28;20077;-61
2021/08/26 20:37:59;;;;;;;7.55;6.85;;;;;;;;;;10283492;28;20076;-60
2021/08/26 20:42:57;;;;;;;7.88;7.10;;;;;;;;;;10292180;28;20048;-61
2021/08/26 20:47:58;;;;;;;8.00;7.20;;;;;;;;;;10275634;28;20053;-61
2021/08/26 20:52:57;;;;;;;7.57;6.78;;;;;;;;;;10292302;28;20502;-61
2021/08/26 20:57:59;;;;;;;7.65;6.93;;;;;;;;;;10276081;28;20056;-61
2021/08/26 21:02:58;;;;;;;7.70;7.00;;;;;;;;;;10275807;28;20052;-60
2021/08/26 21:07:57;;;;;;;8.63;6.70;;;;;;;;;;10274733;28;20045;-60
2021/08/26 21:12:55;;;;;;;7.32;6.63;;;;;;;;;;10280055;28;20040;-59
2021/08/26 21:17:55;;;;;;;8.20;6.90;;;;;;;;;;10283726;28;20079;-59
2021/08/26 21:22:53;;;;;;;6.90;6.20;;;;;;;;;;10283207;28;20076;-61
2021/08/26 21:27:52;;;;;;;7.93;6.63;;;;;;;;;;10282875;28;20041;-60
2021/08/26 21:32:50;;;;;;;7.38;6.47;;;;;;;;;;10283171;28;20076;-60
2021/08/26 21:37:50;;;;;;;7.35;6.72;;;;;;;;;;10282121;28;20032;-61
2021/08/26 21:42:49;;;;;;;8.30;7.50;;;;;;;;;;10282735;28;20410;-60
2021/08/26 21:47:47;;;;;;;7.70;7.00;;;;;;;;;;10282039;28;20061;-60
2021/08/26 21:52:45;;;;;;;7.72;6.93;;;;;;;;;;10281665;28;20429;-60
2021/08/26 21:57:45;;;;;;;7.85;6.95;;;;;;;;;;10282145;28;20045;-60
2021/08/26 22:02:44;;;;;;;7.55;6.85;;;;;;;;;;10282089;28;20095;-60
2021/08/26 22:07:43;;;;;;;7.90;7.15;;;;;;;;;;10280919;28;20056;-61
2021/08/26 22:12:41;;;;;;;7.60;6.95;;;;;;;;;;10281741;28;20076;-60
2021/08/26 22:17:41;;;;;;;7.47;6.78;;;;;;;;;;10281670;28;20347;-60
2021/08/26 22:22:39;;;;;;;8.25;7.32;;;;;;;;;;10280494;28;20053;-60
2021/08/26 22:27:38;;;;;;;7.70;7.00;;;;;;;;;;10281321;28;20041;-60
2021/08/26 22:32:37;;;;;;;8.00;7.25;;;;;;;;;;10280762;28;20049;-60
2021/08/26 22:37:36;;;;;;;9.30;8.45;;;;;;;;;;10280520;28;20056;-60
2021/08/26 22:42:35;;;;;;;10.27;8.05;;;;;;;;;;10280447;28;20056;-60
2021/08/26 22:47:33;;;;;;;8.95;8.05;;;;;;;;;;10279840;28;20057;-60
2021/08/26 22:52:32;;;;;;;9.27;8.32;;;;;;;;;;10279487;28;20084;-61
2021/08/26 22:57:32;;;;;;;9.38;8.48;;;;;;;;;;10279701;28;20072;-61
2021/08/26 23:02:31;;;;;;;8.68;7.85;;;;;;;;;;10279679;28;20044;-61
2021/08/26 23:07:29;;;;;;;9.70;8.80;;;;;;;;;;10279116;28;20087;-61
2021/08/26 23:12:28;;;;;;;8.90;8.00;;;;;;;;;;10279150;28;20080;-61
2021/08/26 23:17:28;;;;;;;8.95;8.13;;;;;;;;;;10278790;28;20069;-61
2021/08/26 23:22:26;;;;;;;8.75;7.90;;;;;;;;;;10278778;28;20041;-60
2021/08/26 23:27:25;;;;;;;8.85;7.95;;;;;;;;;;10278855;28;20075;-61
2021/08/26 23:32:23;;;;;;;9.30;7.70;;;;;;;;;;10278211;28;20100;-61
2021/08/26 23:37:23;;;;;;;8.68;7.88;;;;;;;;;;10277666;28;20418;-60
2021/08/26 23:42:22;;;;;;;8.25;7.55;;;;;;;;;;10289071;28;20056;-61
2021/08/26 23:47:20;;;;;;;8.30;7.50;;;;;;;;;;10288393;28;20064;-61
2021/08/26 23:52:18;;;;;;;7.97;7.25;;;;;;;;;;10291441;28;20075;-60
2021/08/26 23:57:18;;;;;;;8.85;7.95;;;;;;;;;;10311803;28;20053;-60
